createdAt,value
2019-01-05T00:01:18.763Z,20.07
2019-01-05T00:04:13.356Z,20.77
2019-01-05T00:07:04.689Z,19.50
2019-01-05T00:10:01.270Z,20.47
2019-01-05T00:13:02.291Z,20.30
2019-01-05T00:15:47.020Z,21.80
2019-01-05T00:18:49.559Z,20.33
2019-01-05T00:21:46.525Z,21.20
2019-01-05T00:24:36.475Z,20.17
2019-01-05T00:27:27.941Z,19.93
2019-01-05T00:30:17.327Z,20.70
2019-01-05T00:33:07.856Z,19.90
2019-01-05T00:36:16.602Z,20.00
2019-01-05T00:39:08.534Z,17.20
2019-01-05T00:42:03.735Z,16.33
2019-01-05T00:44:55.429Z,16.43
2019-01-05T00:47:54.842Z,16.10
2019-01-05T00:50:47.314Z,15.47
2019-01-05T00:53:54.479Z,15.30
2019-01-05T00:56:48.352Z,16.57
2019-01-05T00:59:40.765Z,16.77
2019-01-05T01:02:29.722Z,16.47
2019-01-05T01:05:18.770Z,16.10
2019-01-05T01:08:07.976Z,17.37
2019-01-05T01:10:58.868Z,16.40
2019-01-05T01:14:04.604Z,17.47
2019-01-05T01:16:54.400Z,18.07
2019-01-05T01:19:41.234Z,16.83
2019-01-05T01:22:31.805Z,17.27
2019-01-05T01:25:17.499Z,17.33
2019-01-05T01:28:14.698Z,17.07
2019-01-05T01:31:04.959Z,17.00
2019-01-05T01:33:47.878Z,17.27
2019-01-05T01:36:38.726Z,17.63
2019-01-05T01:39:35.823Z,18.27
2019-01-05T01:42:33.962Z,18.87
2019-01-05T01:45:22.464Z,20.00
2019-01-05T01:48:24.309Z,23.03
2019-01-05T01:51:20.440Z,22.07
2019-01-05T01:54:11.321Z,23.37
2019-01-05T01:57:04.805Z,22.43
2019-01-05T02:00:13.024Z,24.10
2019-01-05T02:03:09.175Z,21.97
2019-01-05T02:06:03.430Z,23.27
2019-01-05T02:08:56.418Z,22.90
2019-01-05T02:11:51.326Z,23.40
2019-01-05T02:14:46.752Z,22.80
2019-01-05T02:17:51.977Z,22.40
2019-01-05T02:21:53.499Z,23.00
2019-01-05T02:25:16.127Z,20.90
2019-01-05T02:28:25.733Z,21.60
2019-01-05T02:31:59.486Z,19.97
2019-01-05T02:35:22.521Z,19.20
2019-01-05T02:38:54.486Z,20.23
2019-01-05T02:42:17.209Z,16.80
2019-01-05T02:45:53.024Z,14.77
2019-01-05T02:49:31.487Z,15.47
2019-01-05T02:53:14.240Z,13.57
2019-01-05T02:56:40.610Z,12.57
2019-01-05T03:00:17.157Z,12.73
2019-01-05T03:03:38.653Z,9.70
2019-01-05T03:07:33.469Z,9.33
2019-01-05T03:11:00.421Z,8.93
2019-01-05T03:14:39.449Z,8.47
2019-01-05T03:18:11.191Z,8.83
2019-01-05T03:21:44.190Z,6.90
2019-01-05T03:25:12.266Z,5.87
2019-01-05T03:28:42.008Z,5.30
2019-01-05T03:32:10.040Z,4.27
2019-01-05T03:35:55.318Z,4.10
2019-01-05T03:39:28.769Z,4.53
2019-01-05T03:42:56.936Z,4.27
2019-01-05T03:46:27.468Z,4.07
2019-01-05T03:49:57.555Z,3.80
2019-01-05T03:53:27.129Z,3.23
2019-01-05T03:56:33.488Z,3.13
2019-01-05T04:00:14.953Z,3.43
2019-01-05T04:03:41.242Z,3.73
2019-01-05T04:07:14.561Z,3.80
2019-01-05T04:11:01.856Z,4.10
2019-01-05T04:14:14.571Z,4.03
2019-01-05T04:17:57.231Z,2.40
2019-01-05T04:21:37.521Z,1.60
2019-01-05T04:24:54.246Z,1.83
2019-01-05T04:28:15.865Z,1.40
2019-01-05T04:32:14.168Z,1.23
2019-01-05T04:35:38.603Z,1.30
2019-01-05T04:39:23.968Z,1.73
2019-01-05T04:42:55.901Z,1.50
2019-01-05T04:46:24.597Z,1.57
2019-01-05T04:50:00.367Z,1.37
2019-01-05T04:53:38.425Z,1.67
2019-01-05T04:57:21.113Z,1.97
2019-01-05T05:01:00.769Z,2.20
2019-01-05T05:04:15.001Z,2.10
2019-01-05T05:08:20.275Z,2.00
2019-01-05T05:11:49.040Z,2.33
2019-01-05T05:15:04.194Z,2.30
2019-01-05T05:18:40.707Z,2.33
2019-01-05T05:22:14.126Z,2.87
2019-01-05T05:25:53.685Z,2.00
2019-01-05T05:29:19.561Z,2.10
2019-01-05T05:33:06.475Z,1.93
2019-01-05T05:36:45.714Z,1.90
2019-01-05T05:40:35.911Z,2.03
2019-01-05T05:44:27.188Z,1.93
2019-01-05T05:47:46.870Z,1.40
2019-01-05T05:51:20.251Z,1.50
2019-01-05T05:55:14.897Z,1.80
2019-01-05T05:58:40.710Z,1.73
2019-01-05T06:02:23.036Z,1.97
2019-01-05T06:05:57.652Z,2.20
2019-01-05T06:09:50.688Z,2.33
2019-01-05T06:13:27.642Z,2.57
2019-01-05T06:17:10.690Z,2.80
2019-01-05T06:20:48.156Z,2.40
2019-01-05T06:24:21.547Z,2.50
2019-01-05T06:28:29.021Z,2.27
2019-01-05T06:32:05.931Z,2.40
2019-01-05T06:35:29.092Z,2.20
2019-01-05T06:39:06.967Z,2.37
2019-01-05T06:42:59.578Z,2.20
2019-01-05T06:46:56.164Z,2.40
2019-01-05T06:50:26.748Z,1.80
2019-01-05T06:53:56.875Z,2.33
2019-01-05T06:57:36.412Z,2.20
2019-01-05T07:01:27.474Z,2.30
2019-01-05T07:04:56.862Z,2.10
2019-01-05T07:08:34.248Z,2.40
2019-01-05T07:12:25.755Z,2.30
2019-01-05T07:16:15.088Z,2.37
2019-01-05T07:19:54.828Z,1.77
2019-01-05T07:23:38.196Z,1.83
2019-01-05T07:27:14.031Z,1.43
2019-01-05T07:30:41.588Z,1.30
2019-01-05T07:34:35.153Z,1.60
2019-01-05T07:38:10.159Z,1.43
2019-01-05T07:42:02.596Z,1.20
2019-01-05T07:45:49.218Z,1.40
2019-01-05T07:49:34.389Z,1.20
2019-01-05T07:53:18.341Z,1.27
2019-01-05T07:56:34.960Z,1.10
2019-01-05T07:59:57.397Z,1.90
2019-01-05T08:03:19.215Z,1.20
2019-01-05T08:07:00.846Z,1.30
2019-01-05T08:10:49.874Z,1.17
2019-01-05T08:14:55.501Z,1.27
2019-01-05T08:18:30.439Z,1.30
2019-01-05T08:21:58.438Z,1.30
2019-01-05T08:25:16.489Z,1.40
2019-01-05T08:28:41.602Z,1.50
2019-01-05T08:32:09.807Z,1.70
2019-01-05T08:35:51.581Z,1.93
2019-01-05T08:39:16.189Z,2.40
2019-01-05T08:42:26.653Z,2.50
2019-01-05T08:45:55.813Z,2.70
2019-01-05T08:49:05.832Z,5.63
2019-01-05T08:52:41.884Z,7.73
2019-01-05T08:56:07.132Z,9.10
2019-01-05T08:59:26.784Z,10.97
2019-01-05T09:03:08.932Z,13.07
2019-01-05T09:06:47.315Z,15.77
2019-01-05T09:10:08.735Z,16.03
2019-01-05T09:13:33.432Z,16.40
2019-01-05T09:17:22.746Z,16.93
2019-01-05T09:21:11.574Z,15.27
2019-01-05T09:24:53.840Z,14.87
2019-01-05T09:28:34.394Z,14.33
2019-01-05T09:32:02.922Z,12.97
2019-01-05T09:35:34.420Z,13.00
2019-01-05T09:39:07.544Z,11.87
2019-01-05T09:42:40.104Z,11.13
2019-01-05T09:46:22.962Z,10.30
2019-01-05T09:50:05.374Z,9.90
2019-01-05T09:53:27.778Z,8.13
2019-01-05T09:57:09.966Z,7.70
2019-01-05T10:00:58.427Z,7.40
2019-01-05T10:04:38.248Z,7.43
2019-01-05T10:08:15.497Z,6.67
2019-01-05T10:12:07.174Z,6.30
2019-01-05T10:15:29.884Z,5.93
2019-01-05T10:19:11.644Z,6.47
2019-01-05T10:23:02.987Z,5.87
2019-01-05T10:26:20.240Z,5.83
2019-01-05T10:30:07.392Z,6.07
2019-01-05T10:33:49.698Z,6.10
2019-01-05T10:37:07.962Z,6.10
2019-01-05T10:41:00.423Z,6.07
2019-01-05T10:44:41.415Z,6.40
2019-01-05T10:48:19.623Z,6.70
2019-01-05T10:51:58.845Z,6.30
2019-01-05T10:55:26.913Z,6.50
2019-01-05T10:59:01.016Z,6.73
2019-01-05T11:02:43.477Z,7.00
2019-01-05T11:06:23.142Z,6.80
2019-01-05T11:09:58.327Z,6.60
2019-01-05T11:13:38.937Z,6.30
2019-01-05T11:17:10.423Z,6.00
2019-01-05T11:20:52.678Z,6.37
2019-01-05T11:24:50.192Z,5.77
2019-01-05T11:28:32.466Z,5.80
2019-01-05T11:31:57.467Z,6.10
2019-01-05T11:35:39.220Z,5.40
2019-01-05T11:39:20.750Z,5.83
2019-01-05T11:42:43.452Z,5.20
2019-01-05T11:46:11.737Z,6.17
2019-01-05T11:49:46.988Z,5.83
2019-01-05T11:53:35.733Z,5.40
2019-01-05T11:57:17.934Z,5.73
2019-01-05T12:00:42.974Z,6.13
2019-01-05T12:04:15.311Z,5.67
2019-01-05T12:07:47.857Z,6.20
2019-01-05T12:11:17.812Z,5.57
2019-01-05T12:14:53.510Z,4.90
2019-01-05T12:18:18.388Z,5.30
2019-01-05T12:21:48.528Z,4.60
2019-01-05T12:25:13.572Z,4.70
2019-01-05T12:28:43.682Z,4.70
2019-01-05T12:32:22.314Z,4.50
2019-01-05T12:35:50.578Z,5.33
2019-01-05T12:39:28.605Z,5.07
2019-01-05T12:42:55.998Z,4.87
2019-01-05T12:46:29.921Z,5.00
2019-01-05T12:50:16.392Z,5.00
2019-01-05T12:53:37.805Z,5.43
2019-01-05T12:57:04.996Z,5.73
2019-01-05T13:00:30.337Z,6.43
2019-01-05T13:03:56.669Z,6.63
2019-01-05T13:07:26.716Z,6.50
2019-01-05T13:11:20.481Z,7.90
2019-01-05T13:14:45.132Z,7.83
2019-01-05T13:18:24.110Z,7.73
2019-01-05T13:22:18.255Z,8.67
2019-01-05T13:26:07.505Z,8.83
2019-01-05T13:29:32.851Z,9.63
2019-01-05T13:33:03.665Z,10.70
2019-01-05T13:36:31.170Z,10.60
2019-01-05T13:39:54.237Z,10.80
2019-01-05T13:43:34.927Z,10.37
2019-01-05T13:47:01.100Z,11.13
2019-01-05T13:50:39.548Z,10.13
2019-01-05T13:53:51.806Z,9.80
2019-01-05T13:56:41.506Z,9.77
2019-01-05T13:59:50.578Z,9.53
2019-01-05T14:02:39.821Z,10.10
2019-01-05T14:05:30.337Z,10.60
2019-01-05T14:08:24.129Z,9.63
2019-01-05T14:11:20.919Z,10.37
2019-01-05T14:14:19.710Z,9.90
2019-01-05T14:17:08.802Z,9.07
2019-01-05T14:20:11.918Z,9.70
2019-01-05T14:22:59.451Z,9.27
2019-01-05T14:25:45.696Z,9.07
2019-01-05T14:28:36.057Z,8.73
2019-01-05T14:31:25.924Z,9.13
2019-01-05T14:34:34.487Z,10.10
2019-01-05T14:37:23.971Z,9.00
2019-01-05T14:40:30.091Z,9.03
2019-01-05T14:43:35.672Z,10.30
2019-01-05T14:46:19.826Z,9.40
2019-01-05T14:49:10.353Z,9.50
2019-01-05T14:52:10.113Z,8.80
2019-01-05T14:55:03.197Z,8.73
2019-01-05T14:57:53.966Z,8.70
2019-01-05T15:00:44.484Z,9.33
2019-01-05T15:03:44.433Z,9.40
2019-01-05T15:06:41.491Z,9.07
2019-01-05T15:09:38.217Z,9.43
2019-01-05T15:12:27.136Z,9.93
2019-01-05T15:15:21.413Z,9.70
2019-01-05T15:18:21.690Z,10.40
2019-01-05T15:21:15.478Z,10.63
2019-01-05T15:24:11.828Z,10.27
2019-01-05T15:27:20.734Z,9.60
2019-01-05T15:30:17.888Z,10.20
2019-01-05T15:33:07.661Z,10.53
2019-01-05T15:35:56.779Z,10.07
2019-01-05T15:38:47.516Z,9.70
2019-01-05T15:41:31.582Z,9.67
2019-01-05T15:44:16.741Z,9.33
2019-01-05T15:47:14.629Z,9.17
2019-01-05T15:50:11.140Z,8.97
2019-01-05T15:53:02.152Z,9.77
2019-01-05T15:55:52.794Z,8.97
2019-01-05T15:58:41.754Z,9.90
2019-01-05T16:01:43.117Z,9.90
2019-01-05T16:16:31.203Z,10.93
2019-01-05T16:19:20.559Z,10.60
2019-01-05T16:22:17.010Z,10.57
2019-01-05T16:25:24.127Z,10.33
2019-01-05T16:28:26.677Z,10.13
2019-01-05T16:31:20.174Z,10.13
2019-01-05T16:34:23.137Z,10.30
2019-01-05T16:37:23.189Z,10.17
2019-01-05T16:40:08.525Z,10.67
2019-01-05T16:42:50.979Z,9.90
2019-01-05T16:45:31.783Z,10.50
2019-01-05T16:48:21.063Z,10.57
2019-01-05T16:51:10.017Z,10.20
2019-01-05T16:54:19.680Z,10.13
2019-01-05T16:57:09.620Z,9.77
2019-01-05T17:00:03.158Z,10.47
2019-01-05T17:02:53.879Z,9.87
2019-01-05T17:05:43.932Z,10.47
2019-01-05T17:08:33.149Z,9.90
2019-01-05T17:11:22.308Z,10.77
2019-01-05T17:14:22.868Z,10.40
2019-01-05T17:17:34.445Z,10.40
2019-01-05T17:20:20.536Z,10.70
2019-01-05T17:23:09.620Z,11.13
2019-01-05T17:25:58.476Z,11.47
2019-01-05T17:28:58.405Z,10.50
2019-01-05T17:31:48.990Z,11.90
2019-01-05T17:34:51.767Z,11.43
2019-01-05T17:37:46.084Z,12.23
2019-01-05T17:40:36.453Z,13.03
2019-01-05T17:43:32.667Z,12.63
2019-01-05T17:46:27.332Z,13.93
2019-01-05T17:49:16.579Z,13.73
2019-01-05T17:52:13.512Z,13.00
2019-01-05T17:55:03.848Z,13.23
2019-01-05T17:57:53.304Z,13.07
2019-01-05T18:00:44.600Z,14.07
2019-01-05T18:03:53.300Z,13.80
2019-01-05T18:06:38.901Z,13.00
2019-01-05T18:09:26.876Z,13.17
2019-01-05T18:12:15.398Z,12.97
2019-01-05T18:15:04.839Z,12.67
2019-01-05T18:17:54.680Z,11.60
2019-01-05T18:20:45.358Z,11.40
2019-01-05T18:23:41.946Z,11.10
2019-01-05T18:26:42.470Z,10.87
2019-01-05T18:29:41.959Z,10.50
2019-01-05T18:32:38.518Z,10.63
2019-01-05T18:35:28.614Z,10.77
2019-01-05T18:38:19.070Z,11.10
2019-01-05T18:41:17.058Z,10.80
2019-01-05T18:44:04.109Z,10.63
2019-01-05T18:46:53.610Z,11.07
2019-01-05T18:49:59.850Z,11.03
2019-01-05T18:53:03.402Z,10.30
2019-01-05T18:55:52.377Z,11.83
2019-01-05T18:58:51.853Z,12.33
2019-01-05T19:01:50.037Z,10.87
2019-01-05T19:04:34.765Z,11.33
2019-01-05T19:07:23.579Z,11.03
2019-01-05T19:10:30.548Z,10.23
2019-01-05T19:13:39.424Z,10.87
2019-01-05T19:16:28.597Z,9.90
2019-01-05T19:19:21.696Z,9.70
2019-01-05T19:22:13.176Z,9.90
2019-01-05T19:25:01.970Z,8.80
2019-01-05T19:27:53.598Z,8.47
2019-01-05T19:30:43.721Z,8.10
2019-01-05T19:33:36.931Z,7.60
2019-01-05T19:36:33.301Z,7.67
2019-01-05T19:39:23.655Z,8.03
2019-01-05T19:42:12.773Z,7.57
2019-01-05T19:45:12.201Z,7.77
2019-01-05T19:48:02.544Z,9.00
2019-01-05T19:51:09.357Z,8.70
2019-01-05T19:53:58.236Z,8.80
2019-01-05T19:56:54.654Z,8.83
2019-01-05T19:59:45.805Z,9.17
2019-01-05T20:02:52.006Z,9.00
2019-01-05T20:05:43.657Z,8.63
2019-01-05T20:08:28.659Z,8.50
2019-01-05T20:11:27.836Z,9.23
2019-01-05T20:14:20.324Z,8.83
2019-01-05T20:17:23.142Z,9.10
2019-01-05T20:20:12.713Z,9.67
2019-01-05T20:23:01.852Z,9.47
2019-01-05T20:25:52.543Z,8.93
2019-01-05T20:28:43.002Z,9.53
2019-01-05T20:31:27.591Z,9.23
2019-01-05T20:34:20.717Z,10.23
2019-01-05T20:37:10.084Z,10.03
2019-01-05T20:40:03.661Z,10.13
2019-01-05T20:42:53.036Z,11.07
2019-01-05T20:45:42.506Z,10.10
2019-01-05T20:48:36.222Z,11.33
2019-01-05T20:51:25.167Z,11.47
2019-01-05T20:54:19.150Z,11.57
2019-01-05T20:57:18.468Z,11.20
2019-01-05T21:00:13.706Z,11.90
2019-01-05T21:03:10.460Z,11.50
2019-01-05T21:05:58.090Z,11.60
2019-01-05T21:09:08.764Z,11.90
2019-01-05T21:12:03.998Z,11.13
2019-01-05T21:14:53.123Z,11.77
2019-01-05T21:18:00.460Z,12.30
2019-01-05T21:20:51.942Z,13.27
2019-01-05T21:23:51.899Z,13.23
2019-01-05T21:26:43.281Z,12.37
2019-01-05T21:29:29.783Z,13.30
2019-01-05T21:32:32.985Z,12.40
2019-01-05T21:38:24.357Z,13.10
2019-01-05T21:41:15.117Z,12.30
2019-01-05T21:44:06.719Z,12.63
2019-01-05T21:47:02.203Z,12.40
2019-01-05T21:49:56.644Z,11.40
2019-01-05T21:53:03.994Z,11.13
2019-01-05T21:56:11.644Z,11.57
2019-01-05T21:59:09.771Z,12.83
2019-01-05T22:01:55.015Z,16.20
2019-01-05T22:04:45.845Z,17.70
2019-01-05T22:07:35.530Z,17.97
2019-01-05T22:10:28.936Z,19.17
2019-01-05T22:13:24.249Z,18.87
2019-01-05T22:16:15.862Z,18.60
2019-01-05T22:19:12.266Z,20.57
2019-01-05T22:22:20.072Z,21.00
2019-01-05T22:25:11.656Z,20.03
2019-01-05T22:28:03.025Z,20.27
2019-01-05T22:30:53.057Z,19.57
2019-01-05T22:33:43.226Z,20.00
2019-01-05T22:36:50.571Z,21.10
2019-01-05T22:39:44.061Z,20.63
2019-01-05T22:42:44.300Z,20.87
2019-01-05T22:45:54.025Z,20.57
2019-01-05T22:49:02.071Z,20.47
2019-01-05T22:51:51.505Z,20.83
2019-01-05T22:54:45.884Z,20.03
2019-01-05T22:57:35.547Z,19.67
2019-01-05T23:00:32.108Z,19.13
2019-01-05T23:03:22.466Z,20.20
2019-01-05T23:06:16.824Z,19.97
2019-01-05T23:09:17.344Z,19.53
2019-01-05T23:12:11.794Z,19.57
2019-01-05T23:15:03.516Z,20.00
2019-01-05T23:17:58.612Z,20.13
2019-01-05T23:20:53.196Z,19.87
2019-01-05T23:23:45.647Z,20.77
2019-01-05T23:26:37.018Z,19.87
2019-01-05T23:29:26.912Z,19.43
2019-01-05T23:32:36.518Z,20.00
2019-01-05T23:35:27.518Z,19.40
2019-01-05T23:38:17.201Z,19.97
2019-01-05T23:41:07.479Z,19.40
2019-01-05T23:44:04.242Z,19.50
2019-01-05T23:46:54.534Z,19.23
2019-01-05T23:49:48.646Z,20.50
2019-01-05T23:52:41.105Z,19.63
2019-01-05T23:55:47.687Z,19.50
2019-01-05T23:58:46.123Z,19.13
